createdAt,value
2022-10-03T08:13:02.479Z,100.00
2022-10-03T08:16:16.363Z,100.00
2022-10-03T08:19:10.513Z,100.00
2022-10-03T08:22:17.320Z,100.00
2022-10-03T08:25:29.698Z,100.00
2022-10-03T08:28:51.823Z,100.00
2022-10-03T08:32:04.682Z,100.00
2022-10-03T08:35:08.317Z,100.00
2022-10-03T08:38:33.477Z,100.00
2022-10-03T08:41:37.566Z,100.00
2022-10-03T08:45:08.110Z,100.00
2022-10-03T08:47:53.271Z,100.00
2022-10-03T08:51:12.639Z,100.00
2022-10-03T08:54:13.811Z,100.00
2022-10-03T08:57:19.998Z,100.00
2022-10-03T09:00:05.167Z,100.00
2022-10-03T09:03:33.367Z,100.00
2022-10-03T09:06:29.214Z,100.00
2022-10-03T09:09:51.558Z,100.00
2022-10-03T09:13:14.344Z,100.00
2022-10-03T09:16:20.695Z,100.00
2022-10-03T09:19:45.022Z,100.00
2022-10-03T09:22:49.786Z,100.00
2022-10-03T09:25:50.349Z,100.00
2022-10-03T09:28:53.690Z,100.00
2022-10-03T09:32:18.942Z,100.00
2022-10-03T09:35:33.571Z,100.00
2022-10-03T09:39:05.821Z,100.00
2022-10-03T09:42:09.694Z,100.00
2022-10-03T09:45:16.338Z,100.00
2022-10-03T09:48:26.356Z,100.00
2022-10-03T09:51:25.336Z,100.00
2022-10-03T09:54:44.165Z,100.00
2022-10-03T09:57:51.889Z,100.00
2022-10-03T10:01:05.821Z,100.00
2022-10-03T10:04:12.369Z,100.00
2022-10-03T10:07:35.299Z,100.00
2022-10-03T10:10:46.944Z,100.00
2022-10-03T10:14:07.625Z,100.00
2022-10-03T10:17:26.629Z,100.00
2022-10-03T10:20:39.360Z,100.00
2022-10-03T10:23:30.163Z,100.00
2022-10-03T10:26:54.092Z,100.00
2022-10-03T10:29:50.960Z,100.00
2022-10-03T10:33:06.899Z,100.00
2022-10-03T10:36:27.915Z,100.00
2022-10-03T10:40:02.118Z,100.00
2022-10-03T10:43:10.799Z,100.00
2022-10-03T10:46:33.364Z,100.00
2022-10-03T10:49:27.798Z,100.00
2022-10-03T10:52:50.603Z,100.00
2022-10-03T10:56:00.473Z,100.00
2022-10-03T10:59:05.572Z,99.65
2022-10-03T11:02:23.137Z,98.79
2022-10-03T11:05:32.144Z,96.77
2022-10-03T11:08:59.840Z,95.74
2022-10-03T11:11:59.776Z,96.73
2022-10-03T11:15:03.493Z,97.51
2022-10-03T11:18:08.321Z,98.75
2022-10-03T11:21:08.393Z,99.52
2022-10-03T11:24:19.367Z,100.00
2022-10-03T11:27:32.385Z,100.00
2022-10-03T11:30:17.215Z,100.00
2022-10-03T11:33:05.325Z,99.06
2022-10-03T11:36:17.943Z,99.13
2022-10-03T11:39:42.110Z,97.50
2022-10-03T11:42:45.327Z,92.32
2022-10-03T11:45:42.864Z,84.37
2022-10-03T11:48:42.642Z,83.01
2022-10-03T11:51:42.278Z,79.58
2022-10-03T11:54:34.183Z,77.94
2022-10-03T11:57:30.697Z,76.09
2022-10-03T12:00:20.561Z,74.70
2022-10-03T12:03:34.768Z,75.80
2022-10-03T12:06:59.749Z,76.20
2022-10-03T12:10:02.948Z,75.86
2022-10-03T12:12:55.246Z,75.80
2022-10-03T12:15:46.261Z,74.61
2022-10-03T12:18:55.078Z,75.15
2022-10-03T12:21:43.577Z,76.01
2022-10-03T12:24:34.139Z,75.52
2022-10-03T12:27:40.136Z,74.32
2022-10-03T12:30:31.441Z,71.49
2022-10-03T12:33:40.402Z,68.74
2022-10-03T12:36:49.264Z,68.53
2022-10-03T12:39:51.520Z,68.06
2022-10-03T12:42:46.958Z,69.03
2022-10-03T12:45:48.512Z,68.31
2022-10-03T12:48:59.032Z,68.63
2022-10-03T12:51:54.210Z,69.85
2022-10-03T12:54:49.873Z,69.80
2022-10-03T12:58:01.869Z,68.84
2022-10-03T13:01:25.035Z,69.45
2022-10-03T13:04:38.256Z,67.23
2022-10-03T13:07:28.436Z,66.84
2022-10-03T13:10:42.332Z,65.62
2022-10-03T13:13:49.762Z,66.37
2022-10-03T13:16:45.418Z,65.14
2022-10-03T13:20:10.181Z,65.26
2022-10-03T13:23:07.658Z,65.26
2022-10-03T13:26:08.862Z,64.83
2022-10-03T13:29:26.381Z,65.20
2022-10-03T13:32:26.561Z,63.25
2022-10-03T13:35:41.334Z,61.81
2022-10-03T13:38:46.826Z,61.76
2022-10-03T13:41:45.712Z,61.81
2022-10-03T13:44:50.195Z,61.95
2022-10-03T13:47:52.102Z,61.98
2022-10-03T13:51:02.416Z,61.86
2022-10-03T13:53:59.923Z,61.14
2022-10-03T13:57:08.075Z,60.54
2022-10-03T13:59:53.314Z,60.21
2022-10-03T14:02:44.512Z,60.27
2022-10-03T14:05:32.977Z,59.96
2022-10-03T14:08:39.538Z,59.56
2022-10-03T14:11:44.350Z,59.84
2022-10-03T14:14:54.057Z,60.31
2022-10-03T14:17:46.560Z,60.23
2022-10-03T14:20:37.561Z,59.88
2022-10-03T14:23:29.307Z,59.31
2022-10-03T14:26:29.430Z,60.92
2022-10-03T14:29:43.037Z,61.34
2022-10-03T14:32:59.766Z,61.48
2022-10-03T14:36:06.557Z,61.50
2022-10-03T14:39:09.814Z,61.42
2022-10-03T14:41:54.705Z,60.81
2022-10-03T14:44:46.139Z,61.57
2022-10-03T14:47:42.752Z,61.16
2022-10-03T14:50:31.326Z,61.14
2022-10-03T14:53:27.161Z,60.98
2022-10-03T14:56:14.286Z,60.89
2022-10-03T14:59:03.329Z,60.68
2022-10-03T15:01:52.640Z,60.42
2022-10-03T15:04:41.841Z,59.26
2022-10-03T15:07:39.947Z,58.40
2022-10-03T15:10:27.872Z,58.16
2022-10-03T15:13:19.084Z,58.38
2022-10-03T15:16:05.504Z,58.70
2022-10-03T15:18:58.409Z,59.23
2022-10-03T15:21:46.495Z,59.26
2022-10-03T15:24:35.253Z,59.68
2022-10-03T15:27:23.315Z,60.17
2022-10-03T15:30:20.569Z,61.00
2022-10-03T15:33:17.447Z,61.53
2022-10-03T15:36:22.725Z,61.50
2022-10-03T15:39:23.212Z,61.72
2022-10-03T15:42:08.264Z,61.92
2022-10-03T15:44:59.137Z,62.87
2022-10-03T15:47:46.542Z,63.23
2022-10-03T15:50:40.842Z,63.92
2022-10-03T15:53:36.538Z,64.47
2022-10-03T15:56:44.976Z,64.78
2022-10-03T15:59:43.520Z,65.22
2022-10-03T16:02:39.846Z,66.07
2022-10-03T16:05:27.390Z,65.96
2022-10-03T16:08:21.293Z,66.91
2022-10-03T16:11:17.387Z,67.09
2022-10-03T16:14:27.341Z,67.54
2022-10-03T16:17:28.874Z,67.78
2022-10-03T16:20:44.960Z,67.98
2022-10-03T16:23:38.293Z,68.66
2022-10-03T16:26:35.614Z,68.50
2022-10-03T16:29:34.952Z,68.77
2022-10-03T16:32:27.732Z,69.32
2022-10-03T16:35:27.961Z,69.16
2022-10-03T16:38:24.462Z,68.66
2022-10-03T16:41:24.510Z,68.46
2022-10-03T16:44:20.930Z,68.36
2022-10-03T16:47:07.978Z,68.75
2022-10-03T16:50:16.406Z,69.69
2022-10-03T16:53:07.759Z,70.46
2022-10-03T16:56:04.647Z,71.24
2022-10-03T16:58:55.837Z,71.91
2022-10-03T17:01:50.706Z,72.67
2022-10-03T17:04:43.485Z,72.85
2022-10-03T17:07:35.984Z,73.42
2022-10-03T17:10:32.474Z,74.17
2022-10-03T17:13:38.446Z,74.96
2022-10-03T17:16:29.504Z,75.82
2022-10-03T17:19:20.538Z,76.41
2022-10-03T17:22:10.612Z,77.01
2022-10-03T17:25:04.602Z,77.49
2022-10-03T17:27:51.781Z,78.70
2022-10-03T17:30:47.182Z,79.66
2022-10-03T17:33:46.309Z,80.75
2022-10-03T17:37:03.206Z,81.73
2022-10-03T17:39:58.664Z,83.01
2022-10-03T17:42:52.489Z,83.46
2022-10-03T17:45:51.978Z,83.77
2022-10-03T17:48:41.257Z,84.50
2022-10-03T17:51:35.037Z,85.11
2022-10-03T17:54:33.644Z,85.86
2022-10-03T17:57:25.213Z,86.37
2022-10-03T18:00:27.535Z,86.87
2022-10-03T18:03:44.722Z,87.92
2022-10-03T18:06:29.798Z,88.84
2022-10-03T18:09:15.004Z,89.83
2022-10-03T18:12:12.066Z,90.48
2022-10-03T18:15:16.233Z,91.29
2022-10-03T18:18:26.270Z,91.89
2022-10-03T18:21:30.568Z,92.08
2022-10-03T18:24:43.299Z,92.67
2022-10-03T18:28:04.810Z,93.26
2022-10-03T18:30:57.178Z,94.17
2022-10-03T18:34:14.181Z,94.19
2022-10-03T18:37:04.119Z,94.93
2022-10-03T18:39:54.369Z,95.52
2022-10-03T18:42:40.633Z,95.88
2022-10-03T18:45:44.624Z,96.80
2022-10-03T18:48:35.219Z,97.02
2022-10-03T18:51:32.083Z,97.47
2022-10-03T18:54:35.237Z,98.05
2022-10-03T18:57:34.113Z,98.58
2022-10-03T19:00:25.234Z,98.90
2022-10-03T19:03:17.509Z,99.72
2022-10-03T19:06:33.355Z,100.00
2022-10-03T19:09:22.238Z,100.00
2022-10-03T19:12:24.094Z,100.00
2022-10-03T19:15:22.517Z,100.00
2022-10-03T19:18:27.835Z,100.00
2022-10-03T19:21:18.922Z,100.00
2022-10-03T19:24:17.566Z,100.00
2022-10-03T19:27:12.001Z,100.00
2022-10-03T19:29:59.007Z,100.00
2022-10-03T19:32:52.505Z,100.00
2022-10-03T19:35:45.190Z,100.00
2022-10-03T19:38:37.706Z,100.00
2022-10-03T19:41:36.758Z,100.00
2022-10-03T19:44:25.950Z,100.00
2022-10-03T19:47:19.139Z,100.00
2022-10-03T19:50:19.107Z,100.00
2022-10-03T19:53:18.479Z,100.00
2022-10-03T19:56:04.541Z,100.00
2022-10-03T19:59:04.236Z,100.00
2022-10-03T20:01:50.212Z,100.00
2022-10-03T20:04:37.125Z,100.00
2022-10-03T20:07:36.665Z,100.00
2022-10-03T20:10:43.754Z,100.00
2022-10-03T20:13:42.478Z,100.00
2022-10-03T20:16:33.193Z,100.00
2022-10-03T20:19:25.160Z,100.00
2022-10-03T20:22:13.494Z,100.00
2022-10-03T20:25:00.225Z,100.00
2022-10-03T20:27:51.859Z,100.00
2022-10-03T20:30:40.367Z,100.00
2022-10-03T20:33:31.611Z,100.00
2022-10-03T20:36:25.836Z,100.00
2022-10-03T20:39:17.729Z,100.00
2022-10-03T20:42:26.161Z,100.00
2022-10-03T20:45:29.363Z,100.00
2022-10-03T20:48:20.557Z,100.00
2022-10-03T20:51:05.570Z,100.00
2022-10-03T20:53:54.723Z,100.00
2022-10-03T20:56:51.525Z,100.00
2022-10-03T21:00:10.277Z,100.00
2022-10-03T21:03:04.059Z,100.00
2022-10-03T21:05:55.180Z,100.00
2022-10-03T21:08:41.665Z,100.00
2022-10-03T21:11:32.934Z,100.00
2022-10-03T21:14:25.546Z,100.00
2022-10-03T21:17:16.133Z,100.00
2022-10-03T21:20:07.635Z,100.00
2022-10-03T21:22:59.604Z,100.00
2022-10-03T21:25:45.413Z,100.00
2022-10-03T21:28:32.794Z,100.00
2022-10-03T21:31:35.225Z,100.00
2022-10-03T21:34:33.574Z,100.00
2022-10-03T21:37:31.066Z,100.00
2022-10-03T21:40:32.647Z,100.00
2022-10-03T21:43:39.849Z,100.00
2022-10-03T21:46:37.621Z,100.00
2022-10-03T21:49:32.119Z,100.00
2022-10-03T21:52:32.441Z,100.00
2022-10-03T21:55:51.818Z,100.00
2022-10-03T21:58:53.255Z,100.00
2022-10-03T22:01:52.948Z,100.00
2022-10-03T22:04:48.649Z,100.00
2022-10-03T22:07:42.270Z,100.00
2022-10-03T22:10:32.064Z,100.00
2022-10-03T22:13:19.083Z,100.00
2022-10-03T22:16:14.544Z,100.00
2022-10-03T22:19:05.578Z,100.00
2022-10-03T22:22:06.027Z,100.00
2022-10-03T22:24:57.318Z,100.00
2022-10-03T22:27:54.541Z,100.00
2022-10-03T22:30:50.451Z,100.00
2022-10-03T22:33:54.135Z,100.00
2022-10-03T22:36:40.603Z,100.00
2022-10-03T22:39:26.625Z,100.00
2022-10-03T22:42:14.909Z,100.00
2022-10-03T22:45:02.990Z,100.00
2022-10-03T22:47:52.782Z,100.00
2022-10-03T22:50:41.536Z,100.00
2022-10-03T22:53:31.935Z,100.00
2022-10-03T22:56:42.500Z,100.00
2022-10-03T22:59:31.404Z,100.00
2022-10-03T23:02:18.735Z,100.00
2022-10-03T23:05:09.654Z,100.00
2022-10-03T23:08:09.956Z,100.00
2022-10-03T23:11:08.608Z,100.00
2022-10-03T23:13:56.230Z,100.00
2022-10-03T23:16:56.162Z,100.00
2022-10-03T23:20:02.426Z,100.00
2022-10-03T23:22:54.229Z,100.00
2022-10-03T23:25:58.717Z,100.00
2022-10-03T23:29:14.848Z,100.00
2022-10-03T23:31:59.787Z,100.00
2022-10-03T23:34:46.351Z,100.00
2022-10-03T23:37:40.581Z,100.00
2022-10-03T23:40:39.897Z,100.00
2022-10-03T23:43:26.358Z,100.00
2022-10-03T23:46:15.245Z,100.00
2022-10-03T23:49:01.909Z,100.00
2022-10-03T23:51:48.246Z,100.00
2022-10-03T23:54:33.481Z,100.00
2022-10-03T23:57:20.198Z,100.00
